Aurora, NY

3:58 PM EDT on July 30, 2015 (GMT -0400)
Sunnyside Dairy | | Change Station
CLOSE
Current Station
Personal Weather Station
Location: Scipio Center, NY
Elevation: 1168 ft
Nearby Weather Stations

Elev 1168 ft 42.73 °N, 76.57 °W | Updated 11 seconds ago

Partly Cloudy
Partly Cloudy
80.6 °F
Feels Like 82 °F
N
10.0
Wind Variable Wind from NW
Gusts 12.0 mph

Today
High -- | Low -- °F
--% Chance of Precip.
Yesterday
High -- | Low -- °F
Precip. -- in
5:55 AM 8:29 PM
Waxing Gibbous, 99% visible
Pressure 29.85 in
Visibility 10.0 miles
Clouds Few 6500 ft
Heat Index 82 °F
Dew Point 64 °F
Humidity 58%
Rainfall 0.18 in
Snow Depth Not available.
UV 7 out of 12
Pollen 6.30 out of 12
Air Quality Not available.
Flu Activity Not available.
METAR KITH 301956Z 32010KT 10SM FEW065 28/17 A2987 RMK AO2 T02770166 SLP107

More Conditions Fewer Conditions

Pressure 29.85 in
Visibility 10.0 miles
Clouds Few 6500 ft
Heat Index 82 °F
Dew Point 64 °F
Humidity 58%
Rainfall 0.18 in
Snow Depth Not available.
UV 7 out of 12
Pollen 6.30 out of 12
Air Quality Not available.
Flu Activity Not available.
METAR KITH 301956Z 32010KT 10SM FEW065 28/17 A2987 RMK AO2 T02770166 SLP107

More Conditions Fewer Conditions

10-Day Weather Forecast

×

Almanac

Astronomy

Jul. 30, 2015 Rise Set
Actual Time
Civil Twilight
Nautical Twilight
Astronomical Twilight
Moon
Length of Visible Light
Length of Day
Tomorrow will be .
, % of the Moon is Illuminated

Today's Extremes

State Highs State Lows

Community

WunderPhotos

Upload Photos

1,842,486 photos uploaded!

WunderBlogs® & News

Nearby

Air Quality

  Air Quality AQ Index Pollutant
Not available.

Snow Depth

Station Depth Elevation

Earthquake Activity

City Distance Mag. Time & Date
Minimum magnitude displayed is 2.5.

Coastal Water Temperatures

Place Temperature

Stations

Nearby Weather Stations

Station Location Temp. Windchill Dew Point Humidity Wind Precip. Elev Updated Type